sensor_id;sensor_type;location;lat;lon;timestamp;temperature;humidity
79020;DHT22;72857;44.740;37.770;2024-01-30T00:00:39;-1.15;71.45
79020;DHT22;72857;44.740;37.770;2024-01-30T00:01:41;-1.12;71.25
79020;DHT22;72857;44.740;37.770;2024-01-30T00:02:42;-1.14;71.31
79020;DHT22;72857;44.740;37.770;2024-01-30T00:03:44;-1.14;71.44
79020;DHT22;72857;44.740;37.770;2024-01-30T00:04:46;-1.11;71.26
79020;DHT22;72857;44.740;37.770;2024-01-30T00:05:47;-1.08;71.15
79020;DHT22;72857;44.740;37.770;2024-01-30T00:06:50;-1.15;71.03
79020;DHT22;72857;44.740;37.770;2024-01-30T00:07:52;-1.12;71.21
79020;DHT22;72857;44.740;37.770;2024-01-30T00:08:54;-1.15;71.45
79020;DHT22;72857;44.740;37.770;2024-01-30T00:09:55;-1.12;71.51
79020;DHT22;72857;44.740;37.770;2024-01-30T00:10:57;-1.12;71.43
79020;DHT22;72857;44.740;37.770;2024-01-30T00:11:59;-1.11;71.22
79020;DHT22;72857;44.740;37.770;2024-01-30T00:13:00;-1.09;71.20
79020;DHT22;72857;44.740;37.770;2024-01-30T00:14:04;-1.09;71.15
79020;DHT22;72857;44.740;37.770;2024-01-30T00:15:05;-1.09;71.31
79020;DHT22;72857;44.740;37.770;2024-01-30T00:16:23;-1.09;71.20
79020;DHT22;72857;44.740;37.770;2024-01-30T00:17:25;-1.09;71.48
79020;DHT22;72857;44.740;37.770;2024-01-30T00:18:27;-1.11;71.41
79020;DHT22;72857;44.740;37.770;2024-01-30T00:19:30;-1.11;71.37
79020;DHT22;72857;44.740;37.770;2024-01-30T00:20:33;-1.12;71.22
79020;DHT22;72857;44.740;37.770;2024-01-30T00:21:35;-1.11;71.33
79020;DHT22;72857;44.740;37.770;2024-01-30T00:22:37;-1.11;70.88
79020;DHT22;72857;44.740;37.770;2024-01-30T00:23:43;-1.09;70.65
79020;DHT22;72857;44.740;37.770;2024-01-30T00:24:44;-1.11;70.91
79020;DHT22;72857;44.740;37.770;2024-01-30T00:25:46;-1.09;71.16
79020;DHT22;72857;44.740;37.770;2024-01-30T00:26:47;-1.09;70.96
79020;DHT22;72857;44.740;37.770;2024-01-30T00:27:49;-1.12;70.81
79020;DHT22;72857;44.740;37.770;2024-01-30T00:28:51;-1.11;70.98
79020;DHT22;72857;44.740;37.770;2024-01-30T00:29:52;-1.11;71.18
79020;DHT22;72857;44.740;37.770;2024-01-30T00:30:54;-1.11;71.29
79020;DHT22;72857;44.740;37.770;2024-01-30T00:31:55;-1.07;71.52
79020;DHT22;72857;44.740;37.770;2024-01-30T00:32:57;-1.08;71.49
79020;DHT22;72857;44.740;37.770;2024-01-30T00:33:59;-1.08;71.23
79020;DHT22;72857;44.740;37.770;2024-01-30T00:35:00;-1.07;71.46
79020;DHT22;72857;44.740;37.770;2024-01-30T00:36:02;-1.08;71.51
79020;DHT22;72857;44.740;37.770;2024-01-30T00:37:04;-1.08;71.44
79020;DHT22;72857;44.740;37.770;2024-01-30T00:38:05;-1.03;71.02
79020;DHT22;72857;44.740;37.770;2024-01-30T00:39:09;-1.05;70.54
79020;DHT22;72857;44.740;37.770;2024-01-30T00:40:11;-1.05;70.50
79020;DHT22;72857;44.740;37.770;2024-01-30T00:41:19;-1.04;70.88
79020;DHT22;72857;44.740;37.770;2024-01-30T00:42:21;-1.03;71.11
79020;DHT22;72857;44.740;37.770;2024-01-30T00:43:25;-1.05;71.32
79020;DHT22;72857;44.740;37.770;2024-01-30T00:44:27;-1.05;71.50
79020;DHT22;72857;44.740;37.770;2024-01-30T00:45:29;-1.07;71.71
79020;DHT22;72857;44.740;37.770;2024-01-30T00:46:30;-1.05;71.61
79020;DHT22;72857;44.740;37.770;2024-01-30T00:47:32;-1.04;71.61
79020;DHT22;72857;44.740;37.770;2024-01-30T00:48:34;-1.07;71.55
79020;DHT22;72857;44.740;37.770;2024-01-30T00:49:36;-1.04;71.56
79020;DHT22;72857;44.740;37.770;2024-01-30T00:50:38;-1.07;71.58
79020;DHT22;72857;44.740;37.770;2024-01-30T00:51:39;-1.07;71.67
79020;DHT22;72857;44.740;37.770;2024-01-30T00:52:41;-1.07;71.67
79020;DHT22;72857;44.740;37.770;2024-01-30T00:53:43;-1.08;71.79
79020;DHT22;72857;44.740;37.770;2024-01-30T00:54:45;-1.08;71.66
79020;DHT22;72857;44.740;37.770;2024-01-30T00:55:46;-1.08;71.59
79020;DHT22;72857;44.740;37.770;2024-01-30T00:56:48;-1.07;71.61
79020;DHT22;72857;44.740;37.770;2024-01-30T00:57:50;-1.07;71.44
79020;DHT22;72857;44.740;37.770;2024-01-30T00:58:51;-1.07;71.24
79020;DHT22;72857;44.740;37.770;2024-01-30T00:59:53;-1.08;71.49
79020;DHT22;72857;44.740;37.770;2024-01-30T01:00:54;-1.07;71.56
79020;DHT22;72857;44.740;37.770;2024-01-30T01:01:56;-1.08;71.58
79020;DHT22;72857;44.740;37.770;2024-01-30T01:02:58;-1.07;71.59
79020;DHT22;72857;44.740;37.770;2024-01-30T01:04:00;-1.04;71.73
79020;DHT22;72857;44.740;37.770;2024-01-30T01:05:02;-1.05;71.43
79020;DHT22;72857;44.740;37.770;2024-01-30T01:06:04;-1.07;71.46
79020;DHT22;72857;44.740;37.770;2024-01-30T01:07:06;-1.04;71.52
79020;DHT22;72857;44.740;37.770;2024-01-30T01:08:07;-1.07;71.56
79020;DHT22;72857;44.740;37.770;2024-01-30T01:09:11;-1.07;71.50
79020;DHT22;72857;44.740;37.770;2024-01-30T01:10:14;-1.05;71.35
79020;DHT22;72857;44.740;37.770;2024-01-30T01:11:15;-1.07;71.52
79020;DHT22;72857;44.740;37.770;2024-01-30T01:12:17;-1.05;71.41
79020;DHT22;72857;44.740;37.770;2024-01-30T01:13:19;-1.07;71.16
79020;DHT22;72857;44.740;37.770;2024-01-30T01:14:21;-1.08;71.31
79020;DHT22;72857;44.740;37.770;2024-01-30T01:15:25;-1.08;71.34
79020;DHT22;72857;44.740;37.770;2024-01-30T01:16:27;-1.07;71.40
79020;DHT22;72857;44.740;37.770;2024-01-30T01:17:28;-1.08;71.49
79020;DHT22;72857;44.740;37.770;2024-01-30T01:18:30;-1.07;71.47
79020;DHT22;72857;44.740;37.770;2024-01-30T01:19:32;-1.08;71.33
79020;DHT22;72857;44.740;37.770;2024-01-30T01:20:33;-1.11;71.52
79020;DHT22;72857;44.740;37.770;2024-01-30T01:21:35;-1.11;71.71
79020;DHT22;72857;44.740;37.770;2024-01-30T01:22:37;-1.11;71.69
79020;DHT22;72857;44.740;37.770;2024-01-30T01:23:39;-1.11;71.75
79020;DHT22;72857;44.740;37.770;2024-01-30T01:24:41;-1.11;71.90
79020;DHT22;72857;44.740;37.770;2024-01-30T01:25:43;-1.11;71.71
79020;DHT22;72857;44.740;37.770;2024-01-30T01:26:45;-1.11;71.63
79020;DHT22;72857;44.740;37.770;2024-01-30T01:27:46;-1.14;71.67
79020;DHT22;72857;44.740;37.770;2024-01-30T01:28:52;-1.12;71.75
79020;DHT22;72857;44.740;37.770;2024-01-30T01:29:54;-1.17;71.82
79020;DHT22;72857;44.740;37.770;2024-01-30T01:30:56;-1.17;71.87
79020;DHT22;72857;44.740;37.770;2024-01-30T01:32:00;-1.15;71.89
79020;DHT22;72857;44.740;37.770;2024-01-30T01:33:02;-1.17;71.82
79020;DHT22;72857;44.740;37.770;2024-01-30T01:34:03;-1.14;71.90
79020;DHT22;72857;44.740;37.770;2024-01-30T01:35:05;-1.17;71.92
79020;DHT22;72857;44.740;37.770;2024-01-30T01:36:06;-1.14;71.94
79020;DHT22;72857;44.740;37.770;2024-01-30T01:37:08;-1.17;71.88
79020;DHT22;72857;44.740;37.770;2024-01-30T01:38:10;-1.18;71.82
79020;DHT22;72857;44.740;37.770;2024-01-30T01:39:12;-1.18;71.83
79020;DHT22;72857;44.740;37.770;2024-01-30T01:40:13;-1.19;71.93
79020;DHT22;72857;44.740;37.770;2024-01-30T01:41:15;-1.21;71.94
79020;DHT22;72857;44.740;37.770;2024-01-30T01:42:17;-1.19;71.92
79020;DHT22;72857;44.740;37.770;2024-01-30T01:43:18;-1.18;71.97
79020;DHT22;72857;44.740;37.770;2024-01-30T01:44:20;-1.18;71.93
79020;DHT22;72857;44.740;37.770;2024-01-30T01:45:22;-1.17;71.94
79020;DHT22;72857;44.740;37.770;2024-01-30T01:46:26;-1.17;71.88
79020;DHT22;72857;44.740;37.770;2024-01-30T01:47:29;-1.15;71.47
79020;DHT22;72857;44.740;37.770;2024-01-30T01:48:30;-1.18;71.47
79020;DHT22;72857;44.740;37.770;2024-01-30T01:49:32;-1.14;71.35
79020;DHT22;72857;44.740;37.770;2024-01-30T01:50:35;-1.15;71.13
79020;DHT22;72857;44.740;37.770;2024-01-30T01:51:38;-1.15;70.96
79020;DHT22;72857;44.740;37.770;2024-01-30T01:52:41;-1.18;71.06
79020;DHT22;72857;44.740;37.770;2024-01-30T01:53:43;-1.17;70.87
79020;DHT22;72857;44.740;37.770;2024-01-30T01:54:44;-1.14;70.92
79020;DHT22;72857;44.740;37.770;2024-01-30T01:55:47;-1.15;70.97
79020;DHT22;72857;44.740;37.770;2024-01-30T01:56:49;-1.14;70.90
79020;DHT22;72857;44.740;37.770;2024-01-30T01:57:52;-1.17;70.88
79020;DHT22;72857;44.740;37.770;2024-01-30T01:58:55;-1.21;71.00
79020;DHT22;72857;44.740;37.770;2024-01-30T02:00:01;-1.18;71.06
79020;DHT22;72857;44.740;37.770;2024-01-30T02:01:11;-1.17;71.02
79020;DHT22;72857;44.740;37.770;2024-01-30T02:02:14;-1.18;70.97
79020;DHT22;72857;44.740;37.770;2024-01-30T02:03:19;-1.18;70.94
79020;DHT22;72857;44.740;37.770;2024-01-30T02:04:22;-1.19;71.00
79020;DHT22;72857;44.740;37.770;2024-01-30T02:05:24;-1.21;71.03
79020;DHT22;72857;44.740;37.770;2024-01-30T02:06:27;-1.22;71.15
79020;DHT22;72857;44.740;37.770;2024-01-30T02:07:28;-1.22;71.09
79020;DHT22;72857;44.740;37.770;2024-01-30T02:08:30;-1.24;71.11
79020;DHT22;72857;44.740;37.770;2024-01-30T02:09:32;-1.22;70.99
79020;DHT22;72857;44.740;37.770;2024-01-30T02:10:34;-1.22;71.08
79020;DHT22;72857;44.740;37.770;2024-01-30T02:11:36;-1.24;71.13
79020;DHT22;72857;44.740;37.770;2024-01-30T02:12:39;-1.25;71.21
79020;DHT22;72857;44.740;37.770;2024-01-30T02:13:41;-1.25;71.23
79020;DHT22;72857;44.740;37.770;2024-01-30T02:14:49;-1.25;71.46
79020;DHT22;72857;44.740;37.770;2024-01-30T02:15:53;-1.27;71.49
79020;DHT22;72857;44.740;37.770;2024-01-30T02:16:55;-1.30;71.38
79020;DHT22;72857;44.740;37.770;2024-01-30T02:17:56;-1.30;71.21
79020;DHT22;72857;44.740;37.770;2024-01-30T02:18:58;-1.30;71.32
79020;DHT22;72857;44.740;37.770;2024-01-30T02:20:05;-1.31;71.20
79020;DHT22;72857;44.740;37.770;2024-01-30T02:21:07;-1.28;71.14
79020;DHT22;72857;44.740;37.770;2024-01-30T02:22:09;-1.24;71.33
79020;DHT22;72857;44.740;37.770;2024-01-30T02:23:12;-1.24;71.12
79020;DHT22;72857;44.740;37.770;2024-01-30T02:24:13;-1.21;71.05
79020;DHT22;72857;44.740;37.770;2024-01-30T02:25:15;-1.21;70.85
79020;DHT22;72857;44.740;37.770;2024-01-30T02:26:17;-1.25;70.69
79020;DHT22;72857;44.740;37.770;2024-01-30T02:27:18;-1.27;70.80
79020;DHT22;72857;44.740;37.770;2024-01-30T02:28:20;-1.30;71.09
79020;DHT22;72857;44.740;37.770;2024-01-30T02:29:21;-1.32;71.25
79020;DHT22;72857;44.740;37.770;2024-01-30T02:30:23;-1.34;71.45
79020;DHT22;72857;44.740;37.770;2024-01-30T02:31:25;-1.31;71.36
79020;DHT22;72857;44.740;37.770;2024-01-30T02:32:27;-1.32;71.13
79020;DHT22;72857;44.740;37.770;2024-01-30T02:33:29;-1.35;71.18
79020;DHT22;72857;44.740;37.770;2024-01-30T02:34:30;-1.34;71.15
79020;DHT22;72857;44.740;37.770;2024-01-30T02:35:32;-1.34;70.96
79020;DHT22;72857;44.740;37.770;2024-01-30T02:36:36;-1.32;71.02
79020;DHT22;72857;44.740;37.770;2024-01-30T02:37:38;-1.34;71.28
79020;DHT22;72857;44.740;37.770;2024-01-30T02:38:40;-1.36;71.64
79020;DHT22;72857;44.740;37.770;2024-01-30T02:39:41;-1.38;71.59
79020;DHT22;72857;44.740;37.770;2024-01-30T02:40:44;-1.39;71.52
79020;DHT22;72857;44.740;37.770;2024-01-30T02:41:46;-1.39;71.38
79020;DHT22;72857;44.740;37.770;2024-01-30T02:42:48;-1.39;71.36
79020;DHT22;72857;44.740;37.770;2024-01-30T02:43:49;-1.39;71.14
79020;DHT22;72857;44.740;37.770;2024-01-30T02:44:51;-1.39;71.06
79020;DHT22;72857;44.740;37.770;2024-01-30T02:45:53;-1.39;71.26
79020;DHT22;72857;44.740;37.770;2024-01-30T02:46:54;-1.38;71.26
79020;DHT22;72857;44.740;37.770;2024-01-30T02:47:56;-1.41;71.00
79020;DHT22;72857;44.740;37.770;2024-01-30T02:48:58;-1.44;70.79
79020;DHT22;72857;44.740;37.770;2024-01-30T02:49:59;-1.42;70.42
79020;DHT22;72857;44.740;37.770;2024-01-30T02:51:01;-1.44;70.27
79020;DHT22;72857;44.740;37.770;2024-01-30T02:52:03;-1.45;70.45
79020;DHT22;72857;44.740;37.770;2024-01-30T02:53:04;-1.48;70.51
79020;DHT22;72857;44.740;37.770;2024-01-30T02:54:06;-1.49;70.73
79020;DHT22;72857;44.740;37.770;2024-01-30T02:55:08;-1.48;70.95
79020;DHT22;72857;44.740;37.770;2024-01-30T02:56:10;-1.45;70.78
79020;DHT22;72857;44.740;37.770;2024-01-30T02:57:12;-1.45;70.79
79020;DHT22;72857;44.740;37.770;2024-01-30T02:58:13;-1.49;70.81
79020;DHT22;72857;44.740;37.770;2024-01-30T02:59:15;-1.48;70.50
79020;DHT22;72857;44.740;37.770;2024-01-30T03:00:17;-1.46;70.69
79020;DHT22;72857;44.740;37.770;2024-01-30T03:01:19;-1.48;70.91
79020;DHT22;72857;44.740;37.770;2024-01-30T03:02:20;-1.48;71.12
79020;DHT22;72857;44.740;37.770;2024-01-30T03:03:22;-1.49;71.04
79020;DHT22;72857;44.740;37.770;2024-01-30T03:04:23;-1.51;71.04
79020;DHT22;72857;44.740;37.770;2024-01-30T03:05:25;-1.52;70.96
79020;DHT22;72857;44.740;37.770;2024-01-30T03:06:26;-1.52;71.06
79020;DHT22;72857;44.740;37.770;2024-01-30T03:07:28;-1.49;70.91
79020;DHT22;72857;44.740;37.770;2024-01-30T03:08:30;-1.48;70.61
79020;DHT22;72857;44.740;37.770;2024-01-30T03:09:31;-1.51;70.62
79020;DHT22;72857;44.740;37.770;2024-01-30T03:10:33;-1.52;70.71
79020;DHT22;72857;44.740;37.770;2024-01-30T03:11:38;-1.52;70.74
79020;DHT22;72857;44.740;37.770;2024-01-30T03:12:40;-1.48;70.71
79020;DHT22;72857;44.740;37.770;2024-01-30T03:13:41;-1.55;70.57
79020;DHT22;72857;44.740;37.770;2024-01-30T03:14:43;-1.54;70.70
79020;DHT22;72857;44.740;37.770;2024-01-30T03:15:45;-1.56;70.60
79020;DHT22;72857;44.740;37.770;2024-01-30T03:16:46;-1.59;70.57
79020;DHT22;72857;44.740;37.770;2024-01-30T03:17:48;-1.60;70.59
79020;DHT22;72857;44.740;37.770;2024-01-30T03:18:49;-1.60;70.74
79020;DHT22;72857;44.740;37.770;2024-01-30T03:19:51;-1.59;70.83
79020;DHT22;72857;44.740;37.770;2024-01-30T03:20:52;-1.60;70.69
79020;DHT22;72857;44.740;37.770;2024-01-30T03:21:54;-1.63;70.71
79020;DHT22;72857;44.740;37.770;2024-01-30T03:22:56;-1.62;70.81
79020;DHT22;72857;44.740;37.770;2024-01-30T03:23:57;-1.63;70.78
79020;DHT22;72857;44.740;37.770;2024-01-30T03:24:59;-1.63;70.75
79020;DHT22;72857;44.740;37.770;2024-01-30T03:26:00;-1.65;70.86
79020;DHT22;72857;44.740;37.770;2024-01-30T03:27:02;-1.66;70.91
79020;DHT22;72857;44.740;37.770;2024-01-30T03:28:04;-1.70;71.17
79020;DHT22;72857;44.740;37.770;2024-01-30T03:29:06;-1.69;71.17
79020;DHT22;72857;44.740;37.770;2024-01-30T03:30:08;-1.69;71.17
79020;DHT22;72857;44.740;37.770;2024-01-30T03:31:10;-1.69;71.05
79020;DHT22;72857;44.740;37.770;2024-01-30T03:32:11;-1.72;70.95
79020;DHT22;72857;44.740;37.770;2024-01-30T03:33:13;-1.70;70.95
79020;DHT22;72857;44.740;37.770;2024-01-30T03:34:14;-1.70;70.89
79020;DHT22;72857;44.740;37.770;2024-01-30T03:35:16;-1.70;70.84
79020;DHT22;72857;44.740;37.770;2024-01-30T03:36:18;-1.72;70.52
79020;DHT22;72857;44.740;37.770;2024-01-30T03:37:19;-1.72;70.51
79020;DHT22;72857;44.740;37.770;2024-01-30T03:38:21;-1.72;70.36
79020;DHT22;72857;44.740;37.770;2024-01-30T03:39:23;-1.70;70.38
79020;DHT22;72857;44.740;37.770;2024-01-30T03:40:24;-1.72;70.23
79020;DHT22;72857;44.740;37.770;2024-01-30T03:41:26;-1.75;70.34
79020;DHT22;72857;44.740;37.770;2024-01-30T03:42:28;-1.72;70.35
79020;DHT22;72857;44.740;37.770;2024-01-30T03:43:29;-1.73;70.49
79020;DHT22;72857;44.740;37.770;2024-01-30T03:44:31;-1.76;70.66
79020;DHT22;72857;44.740;37.770;2024-01-30T03:45:32;-1.76;70.69
79020;DHT22;72857;44.740;37.770;2024-01-30T03:46:34;-1.77;70.66
79020;DHT22;72857;44.740;37.770;2024-01-30T03:47:36;-1.80;70.56
79020;DHT22;72857;44.740;37.770;2024-01-30T03:48:37;-1.77;70.53
79020;DHT22;72857;44.740;37.770;2024-01-30T03:49:40;-1.80;70.53
79020;DHT22;72857;44.740;37.770;2024-01-30T03:50:41;-1.83;70.71
79020;DHT22;72857;44.740;37.770;2024-01-30T03:51:43;-1.83;71.00
79020;DHT22;72857;44.740;37.770;2024-01-30T03:52:46;-1.79;70.85
79020;DHT22;72857;44.740;37.770;2024-01-30T03:53:47;-1.83;70.74
79020;DHT22;72857;44.740;37.770;2024-01-30T03:54:49;-1.83;70.85
79020;DHT22;72857;44.740;37.770;2024-01-30T03:55:50;-1.82;71.00
79020;DHT22;72857;44.740;37.770;2024-01-30T03:56:52;-1.82;70.78
79020;DHT22;72857;44.740;37.770;2024-01-30T03:57:54;-1.82;70.39
79020;DHT22;72857;44.740;37.770;2024-01-30T03:58:55;-1.83;69.95
79020;DHT22;72857;44.740;37.770;2024-01-30T03:59:58;-1.82;69.91
79020;DHT22;72857;44.740;37.770;2024-01-30T04:00:59;-1.82;69.91
79020;DHT22;72857;44.740;37.770;2024-01-30T04:02:01;-1.82;70.19
79020;DHT22;72857;44.740;37.770;2024-01-30T04:03:03;-1.83;70.05
79020;DHT22;72857;44.740;37.770;2024-01-30T04:04:05;-1.82;70.13
79020;DHT22;72857;44.740;37.770;2024-01-30T04:05:07;-1.85;70.03
79020;DHT22;72857;44.740;37.770;2024-01-30T04:06:09;-1.83;70.09
79020;DHT22;72857;44.740;37.770;2024-01-30T04:07:11;-1.86;70.21
79020;DHT22;72857;44.740;37.770;2024-01-30T04:08:12;-1.83;70.37
79020;DHT22;72857;44.740;37.770;2024-01-30T04:09:14;-1.82;70.42
79020;DHT22;72857;44.740;37.770;2024-01-30T04:10:16;-1.80;70.34
79020;DHT22;72857;44.740;37.770;2024-01-30T04:11:20;-1.85;70.21
79020;DHT22;72857;44.740;37.770;2024-01-30T04:12:22;-1.80;70.60
79020;DHT22;72857;44.740;37.770;2024-01-30T04:13:23;-1.79;70.76
79020;DHT22;72857;44.740;37.770;2024-01-30T04:14:25;-1.82;70.86
79020;DHT22;72857;44.740;37.770;2024-01-30T04:15:27;-1.77;70.74
79020;DHT22;72857;44.740;37.770;2024-01-30T04:16:30;-1.79;70.57
79020;DHT22;72857;44.740;37.770;2024-01-30T04:17:32;-1.76;70.58
79020;DHT22;72857;44.740;37.770;2024-01-30T04:18:33;-1.75;70.39
79020;DHT22;72857;44.740;37.770;2024-01-30T04:19:37;-1.70;70.17
79020;DHT22;72857;44.740;37.770;2024-01-30T04:20:39;-1.72;69.99
79020;DHT22;72857;44.740;37.770;2024-01-30T04:21:41;-1.73;70.06
79020;DHT22;72857;44.740;37.770;2024-01-30T04:22:44;-1.73;69.85
79020;DHT22;72857;44.740;37.770;2024-01-30T04:23:46;-1.72;69.99
79020;DHT22;72857;44.740;37.770;2024-01-30T04:24:48;-1.75;70.00
79020;DHT22;72857;44.740;37.770;2024-01-30T04:25:49;-1.72;69.93
79020;DHT22;72857;44.740;37.770;2024-01-30T04:26:51;-1.73;69.87
79020;DHT22;72857;44.740;37.770;2024-01-30T04:27:53;-1.77;69.85
79020;DHT22;72857;44.740;37.770;2024-01-30T04:28:54;-1.76;69.80
79020;DHT22;72857;44.740;37.770;2024-01-30T04:29:56;-1.76;69.72
79020;DHT22;72857;44.740;37.770;2024-01-30T04:30:58;-1.76;69.60
79020;DHT22;72857;44.740;37.770;2024-01-30T04:31:59;-1.77;69.54
79020;DHT22;72857;44.740;37.770;2024-01-30T04:33:01;-1.79;69.67
79020;DHT22;72857;44.740;37.770;2024-01-30T04:34:03;-1.79;69.73
79020;DHT22;72857;44.740;37.770;2024-01-30T04:35:05;-1.79;69.55
79020;DHT22;72857;44.740;37.770;2024-01-30T04:36:08;-1.75;69.53
79020;DHT22;72857;44.740;37.770;2024-01-30T04:37:13;-1.73;69.50
79020;DHT22;72857;44.740;37.770;2024-01-30T04:38:14;-1.77;69.51
79020;DHT22;72857;44.740;37.770;2024-01-30T04:39:16;-1.73;69.40
79020;DHT22;72857;44.740;37.770;2024-01-30T04:40:18;-1.76;69.28
79020;DHT22;72857;44.740;37.770;2024-01-30T04:41:20;-1.75;69.26
79020;DHT22;72857;44.740;37.770;2024-01-30T04:42:21;-1.72;69.26
79020;DHT22;72857;44.740;37.770;2024-01-30T04:43:23;-1.69;69.39
79020;DHT22;72857;44.740;37.770;2024-01-30T04:44:25;-1.72;69.25
79020;DHT22;72857;44.740;37.770;2024-01-30T04:45:26;-1.73;69.14
79020;DHT22;72857;44.740;37.770;2024-01-30T04:46:28;-1.70;69.12
79020;DHT22;72857;44.740;37.770;2024-01-30T04:47:29;-1.70;69.14
79020;DHT22;72857;44.740;37.770;2024-01-30T04:48:31;-1.70;69.28
79020;DHT22;72857;44.740;37.770;2024-01-30T04:49:33;-1.73;69.24
79020;DHT22;72857;44.740;37.770;2024-01-30T04:50:34;-1.70;69.43
79020;DHT22;72857;44.740;37.770;2024-01-30T04:51:36;-1.70;69.52
79020;DHT22;72857;44.740;37.770;2024-01-30T04:52:37;-1.73;69.62
79020;DHT22;72857;44.740;37.770;2024-01-30T04:53:39;-1.75;69.76
79020;DHT22;72857;44.740;37.770;2024-01-30T04:54:41;-1.75;69.81
79020;DHT22;72857;44.740;37.770;2024-01-30T04:55:42;-1.73;69.85
79020;DHT22;72857;44.740;37.770;2024-01-30T04:56:47;-1.77;69.93
79020;DHT22;72857;44.740;37.770;2024-01-30T04:57:49;-1.76;69.74
79020;DHT22;72857;44.740;37.770;2024-01-30T04:58:51;-1.77;69.90
79020;DHT22;72857;44.740;37.770;2024-01-30T04:59:52;-1.82;70.25
79020;DHT22;72857;44.740;37.770;2024-01-30T05:00:54;-1.80;70.29
79020;DHT22;72857;44.740;37.770;2024-01-30T05:01:55;-1.80;70.16
79020;DHT22;72857;44.740;37.770;2024-01-30T05:02:57;-1.79;70.24
79020;DHT22;72857;44.740;37.770;2024-01-30T05:03:59;-1.79;70.09
79020;DHT22;72857;44.740;37.770;2024-01-30T05:05:00;-1.79;70.10
79020;DHT22;72857;44.740;37.770;2024-01-30T05:06:02;-1.77;70.15
79020;DHT22;72857;44.740;37.770;2024-01-30T05:07:04;-1.82;70.27
79020;DHT22;72857;44.740;37.770;2024-01-30T05:08:06;-1.79;70.11
79020;DHT22;72857;44.740;37.770;2024-01-30T05:09:07;-1.73;70.00
79020;DHT22;72857;44.740;37.770;2024-01-30T05:10:10;-1.72;69.94
79020;DHT22;72857;44.740;37.770;2024-01-30T05:11:11;-1.77;70.14
79020;DHT22;72857;44.740;37.770;2024-01-30T05:12:13;-1.77;70.36
79020;DHT22;72857;44.740;37.770;2024-01-30T05:13:15;-1.73;70.03
79020;DHT22;72857;44.740;37.770;2024-01-30T05:14:17;-1.73;69.95
79020;DHT22;72857;44.740;37.770;2024-01-30T05:15:19;-1.76;70.18
79020;DHT22;72857;44.740;37.770;2024-01-30T05:16:20;-1.73;70.33
79020;DHT22;72857;44.740;37.770;2024-01-30T05:17:22;-1.76;70.31
79020;DHT22;72857;44.740;37.770;2024-01-30T05:18:24;-1.73;70.43
79020;DHT22;72857;44.740;37.770;2024-01-30T05:19:26;-1.75;70.35
79020;DHT22;72857;44.740;37.770;2024-01-30T05:20:27;-1.75;70.52
79020;DHT22;72857;44.740;37.770;2024-01-30T05:21:29;-1.75;70.52
79020;DHT22;72857;44.740;37.770;2024-01-30T05:22:31;-1.75;70.44
79020;DHT22;72857;44.740;37.770;2024-01-30T05:23:33;-1.70;70.29
79020;DHT22;72857;44.740;37.770;2024-01-30T05:24:35;-1.70;70.13
79020;DHT22;72857;44.740;37.770;2024-01-30T05:25:37;-1.69;70.02
79020;DHT22;72857;44.740;37.770;2024-01-30T05:26:39;-1.67;70.15
79020;DHT22;72857;44.740;37.770;2024-01-30T05:27:41;-1.67;70.30
79020;DHT22;72857;44.740;37.770;2024-01-30T05:28:42;-1.66;70.42
79020;DHT22;72857;44.740;37.770;2024-01-30T05:29:45;-1.60;70.18
79020;DHT22;72857;44.740;37.770;2024-01-30T05:30:47;-1.60;69.94
79020;DHT22;72857;44.740;37.770;2024-01-30T05:31:48;-1.60;69.73
79020;DHT22;72857;44.740;37.770;2024-01-30T05:32:50;-1.60;69.55
79020;DHT22;72857;44.740;37.770;2024-01-30T05:33:52;-1.55;69.42
79020;DHT22;72857;44.740;37.770;2024-01-30T05:34:53;-1.55;69.26
79020;DHT22;72857;44.740;37.770;2024-01-30T05:35:55;-1.49;68.79
79020;DHT22;72857;44.740;37.770;2024-01-30T05:36:59;-1.45;68.30
79020;DHT22;72857;44.740;37.770;2024-01-30T05:38:01;-1.39;68.43
79020;DHT22;72857;44.740;37.770;2024-01-30T05:39:02;-1.42;68.36
79020;DHT22;72857;44.740;37.770;2024-01-30T05:40:04;-1.38;68.75
79020;DHT22;72857;44.740;37.770;2024-01-30T05:41:06;-1.41;68.52
79020;DHT22;72857;44.740;37.770;2024-01-30T05:42:08;-1.35;68.08
79020;DHT22;72857;44.740;37.770;2024-01-30T05:43:11;-1.34;68.10
79020;DHT22;72857;44.740;37.770;2024-01-30T05:44:13;-1.31;67.88
79020;DHT22;72857;44.740;37.770;2024-01-30T05:45:14;-1.28;68.04
79020;DHT22;72857;44.740;37.770;2024-01-30T05:46:16;-1.28;68.17
79020;DHT22;72857;44.740;37.770;2024-01-30T05:47:18;-1.27;68.16
79020;DHT22;72857;44.740;37.770;2024-01-30T05:48:19;-1.22;68.00
79020;DHT22;72857;44.740;37.770;2024-01-30T05:49:21;-1.27;68.47
79020;DHT22;72857;44.740;37.770;2024-01-30T05:50:23;-1.24;68.27
79020;DHT22;72857;44.740;37.770;2024-01-30T05:51:26;-1.21;68.07
79020;DHT22;72857;44.740;37.770;2024-01-30T05:52:29;-1.18;67.67
79020;DHT22;72857;44.740;37.770;2024-01-30T05:53:31;-1.14;67.64
79020;DHT22;72857;44.740;37.770;2024-01-30T05:54:32;-1.14;67.69
79020;DHT22;72857;44.740;37.770;2024-01-30T05:55:35;-1.14;67.85
79020;DHT22;72857;44.740;37.770;2024-01-30T05:56:37;-1.12;67.58
79020;DHT22;72857;44.740;37.770;2024-01-30T05:57:38;-1.11;67.70
79020;DHT22;72857;44.740;37.770;2024-01-30T05:58:40;-1.09;67.81
79020;DHT22;72857;44.740;37.770;2024-01-30T05:59:42;-1.12;67.98
79020;DHT22;72857;44.740;37.770;2024-01-30T06:00:45;-1.15;68.27
79020;DHT22;72857;44.740;37.770;2024-01-30T06:01:47;-1.17;68.09
79020;DHT22;72857;44.740;37.770;2024-01-30T06:02:49;-1.19;68.18
79020;DHT22;72857;44.740;37.770;2024-01-30T06:03:50;-1.15;68.14
79020;DHT22;72857;44.740;37.770;2024-01-30T06:04:52;-1.17;68.11
79020;DHT22;72857;44.740;37.770;2024-01-30T06:05:54;-1.17;68.29
79020;DHT22;72857;44.740;37.770;2024-01-30T06:06:55;-1.12;68.27
79020;DHT22;72857;44.740;37.770;2024-01-30T06:07:57;-1.08;68.30
79020;DHT22;72857;44.740;37.770;2024-01-30T06:08:58;-1.08;67.95
79020;DHT22;72857;44.740;37.770;2024-01-30T06:10:00;-1.05;67.73
79020;DHT22;72857;44.740;37.770;2024-01-30T06:11:03;-0.98;67.24
79020;DHT22;72857;44.740;37.770;2024-01-30T06:12:05;-0.97;67.12
79020;DHT22;72857;44.740;37.770;2024-01-30T06:13:06;-0.94;67.61
79020;DHT22;72857;44.740;37.770;2024-01-30T06:14:08;-0.93;67.97
79020;DHT22;72857;44.740;37.770;2024-01-30T06:15:10;-0.90;67.89
79020;DHT22;72857;44.740;37.770;2024-01-30T06:16:13;-0.88;67.32
79020;DHT22;72857;44.740;37.770;2024-01-30T06:17:15;-0.86;67.09
79020;DHT22;72857;44.740;37.770;2024-01-30T06:18:17;-0.87;67.06
79020;DHT22;72857;44.740;37.770;2024-01-30T06:19:18;-0.91;67.48
79020;DHT22;72857;44.740;37.770;2024-01-30T06:20:20;-0.93;67.54
79020;DHT22;72857;44.740;37.770;2024-01-30T06:21:23;-0.86;67.10
79020;DHT22;72857;44.740;37.770;2024-01-30T06:22:25;-0.84;66.61
79020;DHT22;72857;44.740;37.770;2024-01-30T06:23:27;-0.86;66.66
79020;DHT22;72857;44.740;37.770;2024-01-30T06:24:28;-0.94;67.09
79020;DHT22;72857;44.740;37.770;2024-01-30T06:25:30;-0.97;67.27